sensor_id;sensor_type;location;lat;lon;timestamp;pressure;altitude;pressure_sealevel;temperature;humidity
13734;BME280;43298;52.560;13.508;2023-01-28T00:00:50;102062.63;;;-1.53;100.00
13734;BME280;43298;52.560;13.508;2023-01-28T00:03:16;102054.91;;;-1.57;100.00
13734;BME280;43298;52.560;13.508;2023-01-28T00:05:42;102057.31;;;-1.62;100.00
13734;BME280;43298;52.560;13.508;2023-01-28T00:08:08;102058.34;;;-1.55;100.00
13734;BME280;43298;52.560;13.508;2023-01-28T00:10:36;102060.19;;;-1.50;100.00
13734;BME280;43298;52.560;13.508;2023-01-28T00:13:05;102058.44;;;-1.52;100.00
13734;BME280;43298;52.560;13.508;2023-01-28T00:15:31;102063.59;;;-1.49;100.00
13734;BME280;43298;52.560;13.508;2023-01-28T00:17:57;102063.31;;;-1.58;100.00
13734;BME280;43298;52.560;13.508;2023-01-28T00:20:22;102059.28;;;-1.52;100.00
13734;BME280;43298;52.560;13.508;2023-01-28T00:22:48;102064.88;;;-1.63;100.00
13734;BME280;43298;52.560;13.508;2023-01-28T00:25:15;102067.22;;;-1.69;100.00
13734;BME280;43298;52.560;13.508;2023-01-28T00:27:41;102067.88;;;-1.76;100.00
13734;BME280;43298;52.560;13.508;2023-01-28T00:30:08;102069.50;;;-1.78;100.00
13734;BME280;43298;52.560;13.508;2023-01-28T00:32:34;102084.06;;;-1.71;100.00
13734;BME280;43298;52.560;13.508;2023-01-28T00:34:59;102079.13;;;-1.67;100.00
13734;BME280;43298;52.560;13.508;2023-01-28T00:37:25;102073.88;;;-1.74;100.00
13734;BME280;43298;52.560;13.508;2023-01-28T00:39:51;102076.19;;;-1.80;100.00
13734;BME280;43298;52.560;13.508;2023-01-28T00:42:17;102081.56;;;-1.70;100.00
13734;BME280;43298;52.560;13.508;2023-01-28T00:44:43;102069.53;;;-1.77;100.00
13734;BME280;43298;52.560;13.508;2023-01-28T00:47:09;102073.88;;;-1.74;100.00
13734;BME280;43298;52.560;13.508;2023-01-28T00:49:35;102078.00;;;-1.76;100.00
13734;BME280;43298;52.560;13.508;2023-01-28T00:52:00;102073.13;;;-1.70;100.00
13734;BME280;43298;52.560;13.508;2023-01-28T00:54:26;102077.22;;;-1.74;100.00
13734;BME280;43298;52.560;13.508;2023-01-28T00:56:52;102085.63;;;-1.76;100.00
13734;BME280;43298;52.560;13.508;2023-01-28T00:59:18;102078.94;;;-1.73;100.00
13734;BME280;43298;52.560;13.508;2023-01-28T01:01:44;102088.06;;;-1.79;100.00
13734;BME280;43298;52.560;13.508;2023-01-28T01:04:10;102082.16;;;-1.78;100.00
13734;BME280;43298;52.560;13.508;2023-01-28T01:06:39;102078.00;;;-1.76;100.00
13734;BME280;43298;52.560;13.508;2023-01-28T01:09:07;102070.31;;;-1.79;100.00
13734;BME280;43298;52.560;13.508;2023-01-28T01:11:35;102072.78;;;-1.81;100.00
13734;BME280;43298;52.560;13.508;2023-01-28T01:14:01;102076.31;;;-1.77;100.00
13734;BME280;43298;52.560;13.508;2023-01-28T01:16:30;102076.59;;;-1.67;100.00
13734;BME280;43298;52.560;13.508;2023-01-28T01:19:01;102075.44;;;-1.78;100.00
13734;BME280;43298;52.560;13.508;2023-01-28T01:21:28;102080.72;;;-1.70;100.00
13734;BME280;43298;52.560;13.508;2023-01-28T01:23:55;102080.84;;;-1.66;100.00
13734;BME280;43298;52.560;13.508;2023-01-28T01:26:22;102081.81;;;-1.62;100.00
13734;BME280;43298;52.560;13.508;2023-01-28T01:28:50;102077.66;;;-1.59;100.00
13734;BME280;43298;52.560;13.508;2023-01-28T01:31:18;102082.88;;;-1.54;100.00
13734;BME280;43298;52.560;13.508;2023-01-28T01:33:47;102083.09;;;-1.47;100.00
13734;BME280;43298;52.560;13.508;2023-01-28T01:36:15;102084.13;;;-1.40;100.00
13734;BME280;43298;52.560;13.508;2023-01-28T01:38:42;102085.00;;;-1.40;100.00
13734;BME280;43298;52.560;13.508;2023-01-28T01:41:11;102081.03;;;-1.30;100.00
13734;BME280;43298;52.560;13.508;2023-01-28T01:44:00;102086.97;;;-1.30;100.00
13734;BME280;43298;52.560;13.508;2023-01-28T01:46:33;102090.31;;;-1.31;100.00
13734;BME280;43298;52.560;13.508;2023-01-28T01:49:14;102093.69;;;-1.32;100.00
13734;BME280;43298;52.560;13.508;2023-01-28T01:51:42;102091.59;;;-1.15;100.00
13734;BME280;43298;52.560;13.508;2023-01-28T01:54:10;102095.78;;;-1.17;100.00
13734;BME280;43298;52.560;13.508;2023-01-28T01:56:40;102094.31;;;-1.09;100.00
13734;BME280;43298;52.560;13.508;2023-01-28T01:59:12;102097.03;;;-1.03;100.00
13734;BME280;43298;52.560;13.508;2023-01-28T02:01:40;102100.50;;;-1.00;100.00
13734;BME280;43298;52.560;13.508;2023-01-28T02:04:28;102089.59;;;-0.96;100.00
13734;BME280;43298;52.560;13.508;2023-01-28T02:06:56;102094.66;;;-0.96;100.00
13734;BME280;43298;52.560;13.508;2023-01-28T02:09:32;102096.47;;;-0.92;100.00
13734;BME280;43298;52.560;13.508;2023-01-28T02:14:46;102088.94;;;-0.89;100.00
13734;BME280;43298;52.560;13.508;2023-01-28T02:17:15;102084.78;;;-0.87;100.00
13734;BME280;43298;52.560;13.508;2023-01-28T02:20:00;102084.84;;;-0.84;100.00
13734;BME280;43298;52.560;13.508;2023-01-28T02:29:37;102087.66;;;-0.73;100.00
13734;BME280;43298;52.560;13.508;2023-01-28T02:32:14;102086.03;;;-0.70;100.00
13734;BME280;43298;52.560;13.508;2023-01-28T02:38:03;102095.19;;;-0.76;100.00
13734;BME280;43298;52.560;13.508;2023-01-28T02:40:36;102092.56;;;-0.79;100.00
13734;BME280;43298;52.560;13.508;2023-01-28T02:43:33;102100.09;;;-0.82;100.00
13734;BME280;43298;52.560;13.508;2023-01-28T02:49:27;102102.75;;;-0.78;100.00
13734;BME280;43298;52.560;13.508;2023-01-28T02:55:56;102097.84;;;-0.72;100.00
13734;BME280;43298;52.560;13.508;2023-01-28T02:58:46;102101.28;;;-0.71;100.00
13734;BME280;43298;52.560;13.508;2023-01-28T03:01:30;102101.31;;;-0.68;100.00
13734;BME280;43298;52.560;13.508;2023-01-28T03:04:08;102092.91;;;-0.67;100.00
13734;BME280;43298;52.560;13.508;2023-01-28T03:06:44;102100.56;;;-0.66;100.00
13734;BME280;43298;52.560;13.508;2023-01-28T03:09:12;102097.22;;;-0.63;100.00
13734;BME280;43298;52.560;13.508;2023-01-28T03:12:39;102108.28;;;-0.61;100.00
13734;BME280;43298;52.560;13.508;2023-01-28T03:15:24;102102.34;;;-0.62;100.00
13734;BME280;43298;52.560;13.508;2023-01-28T03:18:14;102100.66;;;-0.61;100.00
13734;BME280;43298;52.560;13.508;2023-01-28T03:21:08;102105.78;;;-0.60;100.00
13734;BME280;43298;52.560;13.508;2023-01-28T03:24:02;102106.69;;;-0.58;100.00
13734;BME280;43298;52.560;13.508;2023-01-28T03:27:28;102106.72;;;-0.56;100.00
13734;BME280;43298;52.560;13.508;2023-01-28T03:30:37;102112.78;;;-0.51;100.00
13734;BME280;43298;52.560;13.508;2023-01-28T03:33:20;102106.28;;;-0.40;100.00
13734;BME280;43298;52.560;13.508;2023-01-28T03:36:06;102112.34;;;-0.35;100.00
13734;BME280;43298;52.560;13.508;2023-01-28T03:38:51;102113.22;;;-0.33;100.00
13734;BME280;43298;52.560;13.508;2023-01-28T03:41:23;102119.22;;;-0.31;100.00
13734;BME280;43298;52.560;13.508;2023-01-28T03:43:50;102117.56;;;-0.29;100.00
13734;BME280;43298;52.560;13.508;2023-01-28T03:46:18;102112.53;;;-0.26;100.00
13734;BME280;43298;52.560;13.508;2023-01-28T03:48:44;102111.72;;;-0.27;100.00
13734;BME280;43298;52.560;13.508;2023-01-28T03:51:10;102121.03;;;-0.26;100.00
13734;BME280;43298;52.560;13.508;2023-01-28T03:53:37;102126.16;;;-0.24;100.00
13734;BME280;43298;52.560;13.508;2023-01-28T03:56:05;102126.25;;;-0.21;100.00
13734;BME280;43298;52.560;13.508;2023-01-28T03:58:31;102131.38;;;-0.18;100.00
13734;BME280;43298;52.560;13.508;2023-01-28T04:01:16;102133.13;;;-0.17;100.00
13734;BME280;43298;52.560;13.508;2023-01-28T04:03:41;102138.19;;;-0.17;100.00
13734;BME280;43298;52.560;13.508;2023-01-28T04:06:08;102134.00;;;-0.15;100.00
13734;BME280;43298;52.560;13.508;2023-01-28T04:08:34;102143.38;;;-0.13;100.00
13734;BME280;43298;52.560;13.508;2023-01-28T04:11:01;102141.78;;;-0.09;100.00
13734;BME280;43298;52.560;13.508;2023-01-28T04:13:41;102139.44;;;-0.02;100.00
13734;BME280;43298;52.560;13.508;2023-01-28T04:16:07;102149.56;;;-0.03;100.00
13734;BME280;43298;52.560;13.508;2023-01-28T04:18:34;102152.09;;;-0.03;100.00
13734;BME280;43298;52.560;13.508;2023-01-28T04:20:59;102161.44;;;-0.02;100.00
13734;BME280;43298;52.560;13.508;2023-01-28T04:23:25;102166.34;;;-0.08;100.00
13734;BME280;43298;52.560;13.508;2023-01-28T04:25:51;102160.41;;;-0.10;100.00
13734;BME280;43298;52.560;13.508;2023-01-28T04:28:17;102165.53;;;-0.09;100.00
13734;BME280;43298;52.560;13.508;2023-01-28T04:30:43;102167.19;;;-0.09;100.00
13734;BME280;43298;52.560;13.508;2023-01-28T04:33:09;102163.97;;;-0.02;100.00
13734;BME280;43298;52.560;13.508;2023-01-28T04:35:35;102167.44;;;0.00;100.00
13734;BME280;43298;52.560;13.508;2023-01-28T04:38:00;102167.44;;;0.00;100.00
13734;BME280;43298;52.560;13.508;2023-01-28T04:40:26;102164.78;;;-0.05;100.00
13734;BME280;43298;52.560;13.508;2023-01-28T04:42:54;102162.25;;;-0.03;100.00
13734;BME280;43298;52.560;13.508;2023-01-28T04:45:20;102158.06;;;-0.01;100.00
13734;BME280;43298;52.560;13.508;2023-01-28T04:47:46;102168.25;;;0.00;100.00
13734;BME280;43298;52.560;13.508;2023-01-28T04:50:12;102158.88;;;-0.02;100.00
13734;BME280;43298;52.560;13.508;2023-01-28T04:52:38;102164.06;;;0.01;100.00
13734;BME280;43298;52.560;13.508;2023-01-28T04:55:04;102158.25;;;0.07;100.00
13734;BME280;43298;52.560;13.508;2023-01-28T04:57:30;102157.31;;;0.03;100.00
13734;BME280;43298;52.560;13.508;2023-01-28T04:59:56;102156.53;;;0.06;100.00
13734;BME280;43298;52.560;13.508;2023-01-28T05:02:22;102164.16;;;0.06;100.00
13734;BME280;43298;52.560;13.508;2023-01-28T05:04:47;102160.84;;;0.08;100.00
13734;BME280;43298;52.560;13.508;2023-01-28T05:07:13;102162.59;;;0.11;100.00
13734;BME280;43298;52.560;13.508;2023-01-28T05:09:39;102163.44;;;0.11;100.00
13734;BME280;43298;52.560;13.508;2023-01-28T05:12:05;102166.84;;;0.12;100.00
13734;BME280;43298;52.560;13.508;2023-01-28T05:14:31;102175.28;;;0.11;100.00
13734;BME280;43298;52.560;13.508;2023-01-28T05:16:57;102180.34;;;0.09;100.00
13734;BME280;43298;52.560;13.508;2023-01-28T05:19:23;102188.03;;;0.12;100.00
13734;BME280;43298;52.560;13.508;2023-01-28T05:21:48;102193.13;;;0.12;100.00
13734;BME280;43298;52.560;13.508;2023-01-28T05:24:14;102187.22;;;0.13;100.00
13734;BME280;43298;52.560;13.508;2023-01-28T05:26:40;102188.91;;;0.13;100.00
13734;BME280;43298;52.560;13.508;2023-01-28T05:29:06;102190.56;;;0.11;100.00
13734;BME280;43298;52.560;13.508;2023-01-28T05:31:32;102186.25;;;0.08;100.00
13734;BME280;43298;52.560;13.508;2023-01-28T05:33:58;102186.09;;;0.02;100.00
13734;BME280;43298;52.560;13.508;2023-01-28T05:36:24;102193.72;;;0.02;100.00
13734;BME280;43298;52.560;13.508;2023-01-28T05:38:50;102177.63;;;0.03;100.00
13734;BME280;43298;52.560;13.508;2023-01-28T05:41:16;102176.81;;;0.03;100.00
13734;BME280;43298;52.560;13.508;2023-01-28T05:43:42;102169.13;;;0.01;100.00
13734;BME280;43298;52.560;13.508;2023-01-28T05:46:08;102170.78;;;-0.01;100.00
13734;BME280;43298;52.560;13.508;2023-01-28T05:48:34;102175.00;;;-0.02;100.00
13734;BME280;43298;52.560;13.508;2023-01-28T05:50:59;102165.59;;;-0.04;100.00
13734;BME280;43298;52.560;13.508;2023-01-28T05:53:26;102174.06;;;-0.05;100.00
13734;BME280;43298;52.560;13.508;2023-01-28T05:55:52;102176.50;;;-0.10;100.00
13734;BME280;43298;52.560;13.508;2023-01-28T05:58:19;102174.84;;;-0.08;100.00
13734;BME280;43298;52.560;13.508;2023-01-28T06:00:45;102177.56;;;-0.02;100.00
13734;BME280;43298;52.560;13.508;2023-01-28T06:03:11;102165.81;;;0.03;100.00
13734;BME280;43298;52.560;13.508;2023-01-28T06:05:37;102163.25;;;0.03;100.00
13734;BME280;43298;52.560;13.508;2023-01-28T06:08:04;102160.69;;;0.02;100.00
13734;BME280;43298;52.560;13.508;2023-01-28T06:10:30;102159.03;;;0.04;100.00
13734;BME280;43298;52.560;13.508;2023-01-28T06:12:56;102172.56;;;0.03;100.00
13734;BME280;43298;52.560;13.508;2023-01-28T06:15:22;102170.13;;;0.08;100.00
13734;BME280;43298;52.560;13.508;2023-01-28T06:17:48;102172.94;;;0.18;100.00
13734;BME280;43298;52.560;13.508;2023-01-28T06:20:15;102178.03;;;0.18;100.00
13734;BME280;43298;52.560;13.508;2023-01-28T06:22:41;102177.22;;;0.21;100.00
13734;BME280;43298;52.560;13.508;2023-01-28T06:25:07;102173.06;;;0.24;100.00
13734;BME280;43298;52.560;13.508;2023-01-28T06:27:34;102190.00;;;0.22;100.00
13734;BME280;43298;52.560;13.508;2023-01-28T06:30:00;102179.91;;;0.27;100.00
13734;BME280;43298;52.560;13.508;2023-01-28T06:32:27;102182.47;;;0.28;100.00
13734;BME280;43298;52.560;13.508;2023-01-28T06:34:53;102190.09;;;0.28;100.00
13734;BME280;43298;52.560;13.508;2023-01-28T06:37:19;102193.56;;;0.30;100.00
13734;BME280;43298;52.560;13.508;2023-01-28T06:39:44;102202.09;;;0.32;100.00
13734;BME280;43298;52.560;13.508;2023-01-28T06:42:10;102197.88;;;0.34;100.00
13734;BME280;43298;52.560;13.508;2023-01-28T06:44:36;102194.44;;;0.31;100.00
13734;BME280;43298;52.560;13.508;2023-01-28T06:47:02;102198.66;;;0.30;100.00
13734;BME280;43298;52.560;13.508;2023-01-28T06:49:28;102204.59;;;0.31;100.00
13734;BME280;43298;52.560;13.508;2023-01-28T06:51:54;102203.88;;;0.36;100.00
13734;BME280;43298;52.560;13.508;2023-01-28T06:54:20;102209.72;;;0.34;100.00
13734;BME280;43298;52.560;13.508;2023-01-28T06:56:46;102199.53;;;0.31;100.00
13734;BME280;43298;52.560;13.508;2023-01-28T06:59:12;102202.09;;;0.32;100.00
13734;BME280;43298;52.560;13.508;2023-01-28T07:01:38;102208.81;;;0.30;100.00
13734;BME280;43298;52.560;13.508;2023-01-28T07:04:04;102207.19;;;0.32;100.00
13734;BME280;43298;52.560;13.508;2023-01-28T07:06:29;102205.44;;;0.31;100.00
13734;BME280;43298;52.560;13.508;2023-01-28T07:08:55;102200.41;;;0.33;100.00
13734;BME280;43298;52.560;13.508;2023-01-28T07:11:21;102205.53;;;0.34;100.00
13734;BME280;43298;52.560;13.508;2023-01-28T07:13:47;102206.47;;;0.38;100.00
13734;BME280;43298;52.560;13.508;2023-01-28T07:16:13;102213.50;;;0.49;100.00
13734;BME280;43298;52.560;13.508;2023-01-28T07:18:39;102219.66;;;0.57;100.00
13734;BME280;43298;52.560;13.508;2023-01-28T07:21:05;102220.47;;;0.58;100.00
13734;BME280;43298;52.560;13.508;2023-01-28T07:23:30;102213.59;;;0.54;100.00
13734;BME280;43298;52.560;13.508;2023-01-28T07:26:01;102220.53;;;0.59;100.00
13734;BME280;43298;52.560;13.508;2023-01-28T07:28:27;102221.63;;;0.70;100.00
13734;BME280;43298;52.560;13.508;2023-01-28T07:30:53;102216.44;;;0.67;100.00
13734;BME280;43298;52.560;13.508;2023-01-28T07:33:19;102225.78;;;0.67;100.00
13734;BME280;43298;52.560;13.508;2023-01-28T07:35:46;102228.38;;;0.68;100.00
13734;BME280;43298;52.560;13.508;2023-01-28T07:38:13;102219.03;;;0.69;100.00
13734;BME280;43298;52.560;13.508;2023-01-28T07:40:39;102218.19;;;0.68;100.00
13734;BME280;43298;52.560;13.508;2023-01-28T07:43:07;102220.78;;;0.70;100.00
13734;BME280;43298;52.560;13.508;2023-01-28T07:45:34;102220.03;;;0.75;100.00
13734;BME280;43298;52.560;13.508;2023-01-28T07:48:05;102225.13;;;0.75;100.00
13734;BME280;43298;52.560;13.508;2023-01-28T07:50:35;102221.72;;;0.75;100.00
13734;BME280;43298;52.560;13.508;2023-01-28T07:53:04;102221.81;;;0.79;100.00
13734;BME280;43298;52.560;13.508;2023-01-28T07:55:30;102223.56;;;0.82;100.00
13734;BME280;43298;52.560;13.508;2023-01-28T07:57:58;102227.03;;;0.85;100.00
13734;BME280;43298;52.560;13.508;2023-01-28T08:00:28;102221.16;;;0.88;100.00
13734;BME280;43298;52.560;13.508;2023-01-28T08:02:59;102220.34;;;0.89;100.00
13734;BME280;43298;52.560;13.508;2023-01-28T08:05:38;102220.44;;;0.93;100.00
13734;BME280;43298;52.560;13.508;2023-01-28T08:08:07;102230.69;;;0.96;100.00
13734;BME280;43298;52.560;13.508;2023-01-28T08:10:33;102230.69;;;0.96;100.00
13734;BME280;43298;52.560;13.508;2023-01-28T08:12:59;102230.75;;;1.01;100.00
13734;BME280;43298;52.560;13.508;2023-01-28T08:15:26;102230.88;;;1.05;100.00
13734;BME280;43298;52.560;13.508;2023-01-28T08:17:59;102236.91;;;1.09;100.00
13734;BME280;43298;52.560;13.508;2023-01-28T08:20:27;102246.34;;;1.14;100.00
13734;BME280;43298;52.560;13.508;2023-01-28T08:23:02;102240.44;;;1.17;100.00
13734;BME280;43298;52.560;13.508;2023-01-28T08:25:28;102240.56;;;1.21;100.00
13734;BME280;43298;52.560;13.508;2023-01-28T08:27:54;102241.44;;;1.23;100.00
13734;BME280;43298;52.560;13.508;2023-01-28T08:30:20;102244.03;;;1.26;100.00
13734;BME280;43298;52.560;13.508;2023-01-28T08:32:46;102246.66;;;1.29;100.00
13734;BME280;43298;52.560;13.508;2023-01-28T08:35:11;102261.97;;;1.31;100.00
13734;BME280;43298;52.560;13.508;2023-01-28T08:37:37;102266.22;;;1.32;100.00
13734;BME280;43298;52.560;13.508;2023-01-28T08:40:04;102263.84;;;1.39;100.00
13734;BME280;43298;52.560;13.508;2023-01-28T08:42:30;102256.25;;;1.41;100.00
13734;BME280;43298;52.560;13.508;2023-01-28T08:44:56;102263.84;;;1.39;100.00
13734;BME280;43298;52.560;13.508;2023-01-28T08:47:22;102267.25;;;1.40;100.00
13734;BME280;43298;52.560;13.508;2023-01-28T08:49:47;102257.94;;;1.42;100.00
13734;BME280;43298;52.560;13.508;2023-01-28T08:52:13;102258.84;;;1.45;100.00
13734;BME280;43298;52.560;13.508;2023-01-28T08:54:39;102271.69;;;1.50;100.00
13734;BME280;43298;52.560;13.508;2023-01-28T08:57:05;102274.25;;;1.50;100.00
13734;BME280;43298;52.560;13.508;2023-01-28T08:59:31;102268.38;;;1.54;100.00
13734;BME280;43298;52.560;13.508;2023-01-28T09:01:57;102277.72;;;1.55;100.00
13734;BME280;43298;52.560;13.508;2023-01-28T09:04:23;102281.94;;;1.53;100.00
13734;BME280;43298;52.560;13.508;2023-01-28T09:06:48;102278.56;;;1.54;100.00
13734;BME280;43298;52.560;13.508;2023-01-28T09:09:14;102282.13;;;1.60;100.00
13734;BME280;43298;52.560;13.508;2023-01-28T09:11:40;102283.81;;;1.61;100.00
13734;BME280;43298;52.560;13.508;2023-01-28T09:14:06;102278.81;;;1.67;100.00
13734;BME280;43298;52.560;13.508;2023-01-28T09:16:32;102288.28;;;1.71;100.00
13734;BME280;43298;52.560;13.508;2023-01-28T09:18:57;102301.91;;;1.73;100.00
13734;BME280;43298;52.560;13.508;2023-01-28T09:21:23;102298.53;;;1.76;100.00
13734;BME280;43298;52.560;13.508;2023-01-28T09:23:49;102297.72;;;1.77;100.00
13734;BME280;43298;52.560;13.508;2023-01-28T09:26:15;102306.31;;;1.82;100.00
13734;BME280;43298;52.560;13.508;2023-01-28T09:28:41;102307.84;;;1.72;100.00
13734;BME280;43298;52.560;13.508;2023-01-28T09:31:10;102306.16;;;1.74;100.00
13734;BME280;43298;52.560;13.508;2023-01-28T09:33:38;102307.06;;;1.76;100.00
13734;BME280;43298;52.560;13.508;2023-01-28T09:36:06;102307.19;;;1.82;100.00
13734;BME280;43298;52.560;13.508;2023-01-28T09:38:33;102307.28;;;1.88;100.00
13734;BME280;43298;52.560;13.508;2023-01-28T09:41:48;102309.09;;;1.95;100.00
13734;BME280;43298;52.560;13.508;2023-01-28T09:47:42;102319.31;;;1.95;100.00
13734;BME280;43298;52.560;13.508;2023-01-28T09:50:23;102317.66;;;1.97;100.00
13734;BME280;43298;52.560;13.508;2023-01-28T09:52:55;102310.72;;;1.90;100.00
13734;BME280;43298;52.560;13.508;2023-01-28T09:55:36;102317.38;;;1.82;100.00
13734;BME280;43298;52.560;13.508;2023-01-28T09:58:11;102320.97;;;1.92;100.00
13734;BME280;43298;52.560;13.508;2023-01-28T10:10:19;102315.75;;;1.87;100.00
13734;BME280;43298;52.560;13.508;2023-01-28T10:13:37;102311.69;;;1.97;100.00
13734;BME280;43298;52.560;13.508;2023-01-28T10:16:42;102305.66;;;1.92;100.00
13734;BME280;43298;52.560;13.508;2023-01-28T10:19:30;102307.53;;;2.00;100.00
13734;BME280;43298;52.560;13.508;2023-01-28T10:22:25;102317.75;;;2.02;100.00
13734;BME280;43298;52.560;13.508;2023-01-28T10:25:01;102307.75;;;2.14;100.00
13734;BME280;43298;52.560;13.508;2023-01-28T10:27:32;102310.38;;;2.17;100.00
13734;BME280;43298;52.560;13.508;2023-01-28T10:30:23;102312.88;;;2.15;100.00
13734;BME280;43298;52.560;13.508;2023-01-28T10:33:02;102300.25;;;2.21;100.00
13734;BME280;43298;52.560;13.508;2023-01-28T10:35:35;102298.50;;;2.20;100.00
13734;BME280;43298;52.560;13.508;2023-01-28T10:38:05;102289.34;;;2.31;100.00
13734;BME280;43298;52.560;13.508;2023-01-28T10:40:34;102302.00;;;2.25;100.00
13734;BME280;43298;52.560;13.508;2023-01-28T10:42:59;102296.72;;;2.15;100.00
13734;BME280;43298;52.560;13.508;2023-01-28T10:45:39;102292.69;;;2.27;100.00
13734;BME280;43298;52.560;13.508;2023-01-28T10:48:24;102293.44;;;2.22;100.00
13734;BME280;43298;52.560;13.508;2023-01-28T10:50:59;102290.03;;;2.21;100.00
13734;BME280;43298;52.560;13.508;2023-01-28T10:53:42;102293.38;;;2.19;100.00
13734;BME280;43298;52.560;13.508;2023-01-28T10:56:31;102295.97;;;2.20;100.00
13734;BME280;43298;52.560;13.508;2023-01-28T10:59:17;102296.03;;;2.25;100.00
13734;BME280;43298;52.560;13.508;2023-01-28T11:01:49;102299.47;;;2.25;100.00
13734;BME280;43298;52.560;13.508;2023-01-28T11:07:04;102291.88;;;2.28;100.00
13734;BME280;43298;52.560;13.508;2023-01-28T11:09:34;102285.06;;;2.29;100.00
13734;BME280;43298;52.560;13.508;2023-01-28T11:12:13;102285.91;;;2.29;100.00
13734;BME280;43298;52.560;13.508;2023-01-28T11:17:22;102294.63;;;2.42;100.00
13734;BME280;43298;52.560;13.508;2023-01-28T11:19:51;102292.00;;;2.37;100.00
13734;BME280;43298;52.560;13.508;2023-01-28T11:22:41;102284.25;;;2.33;100.00
13734;BME280;43298;52.560;13.508;2023-01-28T11:25:31;102277.53;;;2.36;100.00
13734;BME280;43298;52.560;13.508;2023-01-28T11:28:00;102286.06;;;2.38;100.00
13734;BME280;43298;52.560;13.508;2023-01-28T11:30:36;102278.31;;;2.32;100.00
13734;BME280;43298;52.560;13.508;2023-01-28T11:36:10;102279.00;;;2.22;100.00
13734;BME280;43298;52.560;13.508;2023-01-28T11:44:00;102271.31;;;2.21;100.00
13734;BME280;43298;52.560;13.508;2023-01-28T11:50:02;102273.03;;;2.22;100.00
13734;BME280;43298;52.560;13.508;2023-01-28T11:52:38;102263.66;;;2.21;100.00
13734;BME280;43298;52.560;13.508;2023-01-28T11:55:37;102252.59;;;2.20;100.00
13734;BME280;43298;52.560;13.508;2023-01-28T11:58:52;102259.34;;;2.17;100.00
13734;BME280;43298;52.560;13.508;2023-01-28T12:02:05;102261.97;;;2.21;100.00
13734;BME280;43298;52.560;13.508;2023-01-28T12:05:18;102259.44;;;2.23;100.00
13734;BME280;43298;52.560;13.508;2023-01-28T12:11:20;102255.06;;;2.14;100.00
13734;BME280;43298;52.560;13.508;2023-01-28T12:25:56;102245.75;;;2.18;100.00
13734;BME280;43298;52.560;13.508;2023-01-28T12:31:38;102261.03;;;2.16;100.00
13734;BME280;43298;52.560;13.508;2023-01-28T12:40:14;102250.03;;;2.20;100.00
13734;BME280;43298;52.560;13.508;2023-01-28T12:42:59;102237.28;;;2.20;100.00
13734;BME280;43298;52.560;13.508;2023-01-28T12:45:40;102239.00;;;2.20;100.00
13734;BME280;43298;52.560;13.508;2023-01-28T12:48:31;102231.31;;;2.18;100.00
13734;BME280;43298;52.560;13.508;2023-01-28T12:51:20;102240.63;;;2.16;100.00
13734;BME280;43298;52.560;13.508;2023-01-28T12:53:59;102230.47;;;2.19;100.00
13734;BME280;43298;52.560;13.508;2023-01-28T12:56:43;102233.94;;;2.23;100.00
13734;BME280;43298;52.560;13.508;2023-01-28T12:59:18;102227.09;;;2.22;100.00
13734;BME280;43298;52.560;13.508;2023-01-28T13:05:03;102241.50;;;2.18;100.00
13734;BME280;43298;52.560;13.508;2023-01-28T13:07:58;102220.22;;;2.18;100.00
13734;BME280;43298;52.560;13.508;2023-01-28T13:10:46;102204.81;;;2.10;100.00
13734;BME280;43298;52.560;13.508;2023-01-28T13:13:33;102201.34;;;2.07;100.00
13734;BME280;43298;52.560;13.508;2023-01-28T13:16:00;102197.13;;;2.09;100.00
13734;BME280;43298;52.560;13.508;2023-01-28T13:26:49;102199.75;;;2.13;100.00
13734;BME280;43298;52.560;13.508;2023-01-28T13:31:53;102190.47;;;2.18;100.00
13734;BME280;43298;52.560;13.508;2023-01-28T13:34:33;102194.75;;;2.19;100.00
13734;BME280;43298;52.560;13.508;2023-01-28T13:37:27;102188.78;;;2.20;100.00
13734;BME280;43298;52.560;13.508;2023-01-28T13:40:20;102175.28;;;2.27;100.00
13734;BME280;43298;52.560;13.508;2023-01-28T13:42:59;102177.03;;;2.28;100.00
13734;BME280;43298;52.560;13.508;2023-01-28T13:45:26;102183.78;;;2.26;100.00
13734;BME280;43298;52.560;13.508;2023-01-28T13:48:32;102183.66;;;2.19;100.00
13734;BME280;43298;52.560;13.508;2023-01-28T13:50:59;102183.56;;;2.11;100.00
13734;BME280;43298;52.560;13.508;2023-01-28T13:54:06;102185.03;;;1.97;100.00
13734;BME280;43298;52.560;13.508;2023-01-28T13:57:06;102197.69;;;1.93;100.00
13734;BME280;43298;52.560;13.508;2023-01-28T14:20:28;102160.91;;;2.31;100.00
13734;BME280;43298;52.560;13.508;2023-01-28T14:23:02;102146.38;;;2.27;100.00
13734;BME280;43298;52.560;13.508;2023-01-28T14:25:59;102154.09;;;2.30;100.00
13734;BME280;43298;52.560;13.508;2023-01-28T14:28:38;102158.44;;;2.38;100.00
13734;BME280;43298;52.560;13.508;2023-01-28T14:31:26;102161.97;;;2.45;100.00
13734;BME280;43298;52.560;13.508;2023-01-28T14:33:55;102157.63;;;2.39;100.00
13734;BME280;43298;52.560;13.508;2023-01-28T14:36:23;102169.50;;;2.37;100.00
13734;BME280;43298;52.560;13.508;2023-01-28T14:38:49;102181.28;;;2.29;100.00
13734;BME280;43298;52.560;13.508;2023-01-28T14:41:25;102187.13;;;2.21;100.00
13734;BME280;43298;52.560;13.508;2023-01-28T14:43:53;102185.34;;;2.17;100.00
13734;BME280;43298;52.560;13.508;2023-01-28T14:46:46;102184.41;;;2.12;100.00
13734;BME280;43298;52.560;13.508;2023-01-28T14:52:48;102181.63;;;1.97;100.00
13734;BME280;43298;52.560;13.508;2023-01-28T14:58:40;102191.72;;;1.89;100.00